createdAt,value
2022-10-26T03:00:39.918Z,3.28
2022-10-26T03:03:07.810Z,3.08
2022-10-26T03:05:36.810Z,3.28
2022-10-26T03:08:06.118Z,2.90
2022-10-26T03:10:34.676Z,3.33
2022-10-26T03:13:02.490Z,3.10
2022-10-26T03:15:30.291Z,2.85
2022-10-26T03:17:59.485Z,2.92
2022-10-26T03:20:30.853Z,3.03
2022-10-26T03:22:58.706Z,3.05
2022-10-26T03:25:26.972Z,2.90
2022-10-26T03:27:58.611Z,3.22
2022-10-26T03:30:27.162Z,2.97
2022-10-26T03:32:55.360Z,3.17
2022-10-26T03:35:25.048Z,3.08
2022-10-26T03:37:52.981Z,3.33
2022-10-26T03:40:20.857Z,3.35
2022-10-26T03:42:49.010Z,2.80
2022-10-26T03:45:17.193Z,3.10
2022-10-26T03:47:45.914Z,2.85
2022-10-26T03:50:15.483Z,3.13
2022-10-26T03:52:45.069Z,3.47
2022-10-26T03:55:12.932Z,3.50
2022-10-26T03:57:44.618Z,2.80
2022-10-26T04:00:15.242Z,3.30
2022-10-26T04:02:46.671Z,3.60
2022-10-26T04:05:16.525Z,3.33
2022-10-26T04:07:45.881Z,3.17
2022-10-26T04:10:13.851Z,2.95
2022-10-26T04:12:41.745Z,3.40
2022-10-26T04:15:10.410Z,3.00
2022-10-26T04:17:38.235Z,3.15
2022-10-26T04:20:07.042Z,3.33
2022-10-26T04:22:35.107Z,2.90
2022-10-26T04:25:04.560Z,3.00
2022-10-26T04:27:32.427Z,2.90
2022-10-26T04:30:00.583Z,2.97
2022-10-26T04:32:28.431Z,3.20
2022-10-26T04:34:56.259Z,3.50
2022-10-26T04:37:24.159Z,3.60
2022-10-26T04:39:51.989Z,3.45
2022-10-26T04:42:21.149Z,3.45
2022-10-26T04:44:49.394Z,3.58
2022-10-26T04:47:17.315Z,3.60
2022-10-26T04:49:45.565Z,3.35
2022-10-26T04:52:13.332Z,3.83
2022-10-26T04:54:41.119Z,3.58
2022-10-26T04:57:08.966Z,4.10
2022-10-26T04:59:38.075Z,3.50
2022-10-26T05:02:06.139Z,3.80
2022-10-26T05:04:34.129Z,3.63
2022-10-26T05:07:01.968Z,3.47
2022-10-26T05:09:30.137Z,3.47
2022-10-26T05:11:57.974Z,3.38
2022-10-26T05:14:25.992Z,3.60
2022-10-26T05:16:55.799Z,3.83
2022-10-26T05:19:23.817Z,3.40
2022-10-26T05:21:53.245Z,3.33
2022-10-26T05:24:21.111Z,3.50
2022-10-26T05:26:48.903Z,3.65
2022-10-26T05:29:16.718Z,3.40
2022-10-26T05:31:44.569Z,3.70
2022-10-26T05:34:13.736Z,3.42
2022-10-26T05:36:41.568Z,3.50
2022-10-26T05:39:09.610Z,3.65
2022-10-26T05:41:37.404Z,5.60
2022-10-26T05:44:05.563Z,4.55
2022-10-26T05:46:33.449Z,3.78
2022-10-26T05:49:01.351Z,4.00
2022-10-26T05:51:30.575Z,4.10
2022-10-26T05:53:58.430Z,4.10
2022-10-26T05:56:36.179Z,3.70
2022-10-26T05:59:04.914Z,5.07
2022-10-26T06:01:44.638Z,4.70
2022-10-26T06:04:27.359Z,4.60
2022-10-26T06:06:58.214Z,4.40
2022-10-26T06:09:26.766Z,4.40
2022-10-26T06:11:57.195Z,3.83
2022-10-26T06:14:25.740Z,3.63
2022-10-26T06:17:07.435Z,4.18
2022-10-26T06:19:56.010Z,3.78
2022-10-26T06:22:47.199Z,3.70
2022-10-26T06:25:28.410Z,3.80
2022-10-26T06:28:06.540Z,3.35
2022-10-26T06:30:34.580Z,3.70
2022-10-26T06:33:06.256Z,3.70
2022-10-26T06:35:57.126Z,3.88
2022-10-26T06:38:28.502Z,3.55
2022-10-26T06:40:59.883Z,4.00
2022-10-26T06:43:32.067Z,3.50
2022-10-26T06:46:07.428Z,3.72
2022-10-26T06:48:45.441Z,3.40
2022-10-26T06:51:16.161Z,3.80
2022-10-26T06:53:53.775Z,4.10
2022-10-26T06:56:24.174Z,3.85
2022-10-26T06:58:55.630Z,3.47
2022-10-26T07:01:23.556Z,4.05
2022-10-26T07:03:51.591Z,4.13
2022-10-26T07:08:53.633Z,4.20
2022-10-26T07:11:21.578Z,4.22
2022-10-26T07:13:54.567Z,4.32
2022-10-26T07:16:23.312Z,4.13
2022-10-26T07:18:54.450Z,4.32
2022-10-26T07:21:26.101Z,4.05
2022-10-26T07:23:56.919Z,3.90
2022-10-26T07:26:25.581Z,4.70
2022-10-26T07:28:53.454Z,5.38
2022-10-26T07:31:21.410Z,4.57
2022-10-26T07:33:49.384Z,3.85
2022-10-26T07:36:17.241Z,4.18
2022-10-26T07:38:48.290Z,4.30
2022-10-26T07:41:17.512Z,4.30
2022-10-26T07:43:46.140Z,4.18
2022-10-26T07:46:14.692Z,4.20
2022-10-26T07:51:16.146Z,4.15
2022-10-26T07:53:44.215Z,4.15
2022-10-26T07:56:13.792Z,4.25
2022-10-26T07:58:43.012Z,3.90
2022-10-26T08:01:13.412Z,4.10
2022-10-26T08:03:41.898Z,3.88
2022-10-26T08:06:10.502Z,3.63
2022-10-26T08:08:40.648Z,3.78
2022-10-26T08:11:11.286Z,3.90
2022-10-26T08:13:39.291Z,4.00
2022-10-26T08:16:09.532Z,3.58
2022-10-26T08:18:37.582Z,3.60
2022-10-26T08:21:11.235Z,3.97
2022-10-26T08:23:39.718Z,3.58
2022-10-26T08:26:07.827Z,3.83
2022-10-26T08:28:35.842Z,4.60
2022-10-26T08:31:03.786Z,3.60
2022-10-26T08:33:33.077Z,4.15
2022-10-26T08:36:03.578Z,4.20
2022-10-26T08:38:33.751Z,3.53
2022-10-26T08:41:08.636Z,3.70
2022-10-26T08:43:42.642Z,3.75
2022-10-26T08:46:15.075Z,3.78
2022-10-26T08:48:48.596Z,4.03
2022-10-26T08:51:19.467Z,3.75
2022-10-26T08:53:53.038Z,4.05
2022-10-26T08:56:24.631Z,3.70
2022-10-26T08:58:56.579Z,4.07
2022-10-26T09:01:24.873Z,4.82
2022-10-26T09:03:54.375Z,3.92
2022-10-26T09:06:28.940Z,3.67
2022-10-26T09:09:04.615Z,4.32
2022-10-26T09:11:47.100Z,4.25
2022-10-26T09:14:19.715Z,3.80
2022-10-26T09:16:58.504Z,3.90
2022-10-26T09:19:38.735Z,3.88
2022-10-26T09:22:13.306Z,4.28
2022-10-26T09:24:48.309Z,4.00
2022-10-26T09:27:24.601Z,4.15
2022-10-26T09:29:53.453Z,4.25
2022-10-26T09:32:24.178Z,4.72
2022-10-26T09:34:57.624Z,4.60
2022-10-26T09:37:27.668Z,4.10
2022-10-26T09:40:06.635Z,4.45
2022-10-26T09:42:41.303Z,4.15
2022-10-26T09:45:18.531Z,3.72
2022-10-26T09:47:52.764Z,3.67
2022-10-26T09:50:28.230Z,3.97
2022-10-26T09:52:56.103Z,3.45
2022-10-26T09:55:23.938Z,3.92
2022-10-26T09:57:55.126Z,3.45
2022-10-26T10:00:25.488Z,3.80
2022-10-26T10:02:55.614Z,3.80
2022-10-26T10:08:23.317Z,3.95
2022-10-26T10:11:04.749Z,3.72
2022-10-26T10:13:36.388Z,3.60
2022-10-26T10:16:07.660Z,3.45
2022-10-26T10:18:36.484Z,3.72
2022-10-26T10:21:07.142Z,3.58
2022-10-26T10:23:36.854Z,4.53
2022-10-26T10:26:08.746Z,3.88
2022-10-26T10:28:36.720Z,4.10
2022-10-26T10:31:06.964Z,3.80
2022-10-26T10:33:40.411Z,3.70
2022-10-26T10:36:14.582Z,3.70
2022-10-26T10:38:45.015Z,3.38
2022-10-26T10:41:19.384Z,3.25
2022-10-26T10:43:49.906Z,3.95
2022-10-26T10:46:23.608Z,2.95
2022-10-26T10:48:55.995Z,3.60
2022-10-26T10:51:26.814Z,2.85
2022-10-26T10:53:56.773Z,3.00
2022-10-26T10:56:41.236Z,3.00
2022-10-26T10:59:23.181Z,3.15
2022-10-26T11:01:59.021Z,2.88
2022-10-26T11:04:50.534Z,2.88
2022-10-26T11:07:21.927Z,2.92
2022-10-26T11:12:30.883Z,2.80
2022-10-26T11:15:06.048Z,2.70
2022-10-26T11:17:37.742Z,2.60
2022-10-26T11:20:15.034Z,2.65
2022-10-26T11:23:01.956Z,2.40
2022-10-26T11:25:34.798Z,2.35
2022-10-26T11:28:11.947Z,2.22
2022-10-26T11:30:47.245Z,2.53
2022-10-26T11:33:21.542Z,2.60
2022-10-26T11:35:57.233Z,2.63
2022-10-26T11:38:46.037Z,2.60
2022-10-26T11:41:24.129Z,2.60
2022-10-26T11:43:58.940Z,2.40
2022-10-26T11:46:31.402Z,2.72
2022-10-26T11:49:05.753Z,2.70
2022-10-26T11:51:39.871Z,2.30
2022-10-26T11:54:12.942Z,2.70
2022-10-26T11:56:45.771Z,2.70
2022-10-26T11:59:20.030Z,2.97
2022-10-26T12:01:50.944Z,2.33
2022-10-26T12:04:20.252Z,3.17
2022-10-26T12:06:51.230Z,2.90
2022-10-26T12:09:25.106Z,2.70
2022-10-26T12:11:58.577Z,3.20
2022-10-26T12:14:30.568Z,2.67
2022-10-26T12:17:08.104Z,2.85
2022-10-26T12:19:46.620Z,2.70
2022-10-26T12:22:17.351Z,3.03
2022-10-26T12:24:47.679Z,2.85
2022-10-26T12:27:33.565Z,2.85
2022-10-26T12:30:24.666Z,3.03
2022-10-26T12:32:57.600Z,3.47
2022-10-26T12:35:40.195Z,2.65
2022-10-26T12:38:48.820Z,2.92
2022-10-26T12:41:23.679Z,2.72
2022-10-26T12:43:55.843Z,3.13
2022-10-26T12:46:42.016Z,2.80
2022-10-26T12:49:40.484Z,2.75
2022-10-26T12:52:21.462Z,2.95
2022-10-26T12:55:02.193Z,2.78
2022-10-26T12:57:38.655Z,2.70
2022-10-26T13:00:14.149Z,2.92
2022-10-26T13:02:55.119Z,2.78
2022-10-26T13:05:58.895Z,2.80
2022-10-26T13:08:29.145Z,2.45
2022-10-26T13:11:13.594Z,3.00
2022-10-26T13:13:43.223Z,3.40
2022-10-26T13:16:13.707Z,3.25
2022-10-26T13:18:48.078Z,2.95
2022-10-26T13:21:18.102Z,2.35
2022-10-26T13:23:48.502Z,3.05
2022-10-26T13:26:18.750Z,2.90
2022-10-26T13:28:51.270Z,2.60
2022-10-26T13:31:55.869Z,2.60
2022-10-26T13:34:27.158Z,2.88
2022-10-26T13:37:06.109Z,2.63
2022-10-26T13:39:38.272Z,2.83
2022-10-26T13:42:08.172Z,2.75
2022-10-26T13:44:44.264Z,2.85
2022-10-26T13:47:17.248Z,2.70
2022-10-26T13:49:48.316Z,2.60
2022-10-26T13:52:18.915Z,2.88
2022-10-26T13:54:49.899Z,2.58
2022-10-26T13:57:21.993Z,2.75
2022-10-26T13:59:52.855Z,2.80
2022-10-26T14:02:25.131Z,2.90
2022-10-26T14:04:55.084Z,2.80
2022-10-26T14:07:26.885Z,2.50
2022-10-26T14:09:56.929Z,2.60
2022-10-26T14:12:28.287Z,2.47
2022-10-26T14:15:02.664Z,2.85
2022-10-26T14:17:30.819Z,2.50
2022-10-26T14:19:58.955Z,2.50
2022-10-26T14:22:30.351Z,2.65
2022-10-26T14:24:59.768Z,2.47
2022-10-26T14:27:32.366Z,2.40
2022-10-26T14:30:21.478Z,2.40
2022-10-26T14:32:50.924Z,2.60
2022-10-26T14:35:19.835Z,2.20
2022-10-26T14:37:52.018Z,2.17
2022-10-26T14:40:22.108Z,2.20
2022-10-26T14:42:54.426Z,2.30
2022-10-26T14:45:47.634Z,2.40
2022-10-26T14:48:24.014Z,2.22
2022-10-26T14:51:03.034Z,2.38
2022-10-26T14:53:37.808Z,2.42
2022-10-26T14:56:17.538Z,2.13
2022-10-26T14:58:45.801Z,2.40
2022-10-26T15:01:29.205Z,2.30
2022-10-26T15:04:01.916Z,1.85
2022-10-26T15:06:36.629Z,1.90
2022-10-26T15:09:28.295Z,2.45
2022-10-26T15:11:57.097Z,2.40
2022-10-26T15:14:25.162Z,2.03
2022-10-26T15:16:57.969Z,2.17
2022-10-26T15:19:27.656Z,2.10
2022-10-26T15:21:55.944Z,2.15
2022-10-26T15:24:38.673Z,2.47
2022-10-26T15:27:14.759Z,2.55
2022-10-26T15:29:45.024Z,2.78
2022-10-26T15:32:28.827Z,2.40
2022-10-26T15:35:22.054Z,2.10
2022-10-26T15:37:51.431Z,2.63
2022-10-26T15:40:20.367Z,2.70
2022-10-26T15:42:51.993Z,2.67
2022-10-26T15:45:22.690Z,2.65
2022-10-26T15:47:54.067Z,2.83
2022-10-26T15:50:23.681Z,2.65
2022-10-26T15:52:56.028Z,2.63
2022-10-26T15:55:23.943Z,2.40
2022-10-26T15:57:52.413Z,2.80
2022-10-26T16:00:21.230Z,2.60
2022-10-26T16:02:49.256Z,3.10
2022-10-26T16:05:18.552Z,3.08
2022-10-26T16:07:48.860Z,3.28
2022-10-26T16:10:21.214Z,3.67
2022-10-26T16:12:50.125Z,3.67
2022-10-26T16:15:20.703Z,3.40
2022-10-26T16:17:49.685Z,3.53
2022-10-26T16:20:22.697Z,3.38
2022-10-26T16:22:52.205Z,3.75
2022-10-26T16:25:22.934Z,4.45
2022-10-26T16:27:51.225Z,5.53
2022-10-26T16:30:20.258Z,6.32
2022-10-26T16:32:48.620Z,6.10
2022-10-26T16:35:16.905Z,5.70
2022-10-26T16:37:46.887Z,5.65
2022-10-26T16:40:15.060Z,5.70
2022-10-26T16:42:44.487Z,5.28
2022-10-26T16:45:12.983Z,6.45
2022-10-26T16:47:41.068Z,5.65
2022-10-26T16:50:10.005Z,7.97
2022-10-26T16:52:38.757Z,8.98
2022-10-26T16:55:09.201Z,9.18
2022-10-26T16:57:38.292Z,8.35
2022-10-26T17:00:08.039Z,6.70
2022-10-26T17:02:36.176Z,7.20
2022-10-26T17:05:07.190Z,7.95
2022-10-26T17:07:36.105Z,6.55
2022-10-26T17:10:04.297Z,5.40
2022-10-26T17:12:33.816Z,5.63
2022-10-26T17:15:02.513Z,5.55
2022-10-26T17:17:30.423Z,5.95
2022-10-26T17:19:58.729Z,5.30
2022-10-26T17:22:26.579Z,6.20
2022-10-26T17:24:54.451Z,6.97
2022-10-26T17:27:23.032Z,7.88
2022-10-26T17:29:52.258Z,7.50
2022-10-26T17:32:22.200Z,7.43
2022-10-26T17:34:50.200Z,6.95
2022-10-26T17:37:18.090Z,7.97
2022-10-26T17:39:46.052Z,7.00
2022-10-26T17:42:13.925Z,10.15
2022-10-26T17:44:41.814Z,11.25
2022-10-26T17:47:12.836Z,8.70
2022-10-26T17:49:40.700Z,10.10
2022-10-26T17:52:08.586Z,9.00
2022-10-26T17:54:36.447Z,8.88
2022-10-26T17:57:04.524Z,9.80
2022-10-26T17:59:32.382Z,8.15
2022-10-26T18:02:00.407Z,7.25
2022-10-26T18:04:29.686Z,7.35
2022-10-26T18:06:57.559Z,7.63
2022-10-26T18:09:25.393Z,7.75
2022-10-26T18:11:55.132Z,6.88
2022-10-26T18:14:24.001Z,6.00
2022-10-26T18:16:52.199Z,5.63
2022-10-26T18:19:20.366Z,5.70
2022-10-26T18:21:49.647Z,5.07
2022-10-26T18:24:17.538Z,4.72
2022-10-26T18:26:45.489Z,5.18
2022-10-26T18:29:14.694Z,5.47
2022-10-26T18:31:44.727Z,5.70
2022-10-26T18:34:12.611Z,5.47
2022-10-26T18:36:40.534Z,6.25
2022-10-26T18:39:09.734Z,6.90
2022-10-26T18:41:37.646Z,8.02
2022-10-26T18:44:05.765Z,8.52
2022-10-26T18:46:39.624Z,11.27
2022-10-26T18:49:07.514Z,9.05
2022-10-26T18:51:36.033Z,8.75
2022-10-26T18:54:04.243Z,8.65
2022-10-26T18:56:33.544Z,9.30
2022-10-26T18:59:02.044Z,8.30
2022-10-26T19:01:32.212Z,8.00
2022-10-26T19:04:01.992Z,7.28
2022-10-26T19:06:32.126Z,5.75
2022-10-26T19:09:00.378Z,5.35
2022-10-26T19:11:30.417Z,5.05
2022-10-26T19:14:00.184Z,4.82
2022-10-26T19:16:46.809Z,5.10
2022-10-26T19:19:16.061Z,4.90
2022-10-26T19:21:44.545Z,4.20
2022-10-26T19:24:14.622Z,4.80
2022-10-26T19:26:43.973Z,4.90
2022-10-26T19:29:16.018Z,4.28
2022-10-26T19:31:45.003Z,4.82
2022-10-26T19:34:14.129Z,5.70
2022-10-26T19:36:44.968Z,5.88
2022-10-26T19:39:13.874Z,6.25
2022-10-26T19:41:41.786Z,5.70
2022-10-26T19:44:14.055Z,5.60
2022-10-26T19:46:43.142Z,5.03
2022-10-26T19:49:12.381Z,5.85
2022-10-26T19:51:40.237Z,6.38
2022-10-26T19:54:08.572Z,7.50
2022-10-26T19:56:37.621Z,8.57
2022-10-26T19:59:06.938Z,9.27
2022-10-26T20:01:36.347Z,9.88
2022-10-26T20:04:05.920Z,12.82
2022-10-26T20:06:33.916Z,9.57
2022-10-26T20:09:02.264Z,9.27
2022-10-26T20:11:32.226Z,7.70
2022-10-26T20:14:00.699Z,6.47
2022-10-26T20:16:28.668Z,6.80
2022-10-26T20:19:01.048Z,6.60
2022-10-26T20:21:28.935Z,5.38
2022-10-26T20:23:56.803Z,5.00
2022-10-26T20:26:28.245Z,4.78
2022-10-26T20:28:56.681Z,5.22
2022-10-26T20:31:24.679Z,5.30
2022-10-26T20:33:53.430Z,5.68
2022-10-26T20:36:23.568Z,5.75
2022-10-26T20:38:52.119Z,5.38
2022-10-26T20:41:20.617Z,5.20
2022-10-26T20:43:49.466Z,5.15
2022-10-26T20:46:23.421Z,5.68
2022-10-26T20:48:52.296Z,5.00
2022-10-26T20:51:26.461Z,4.80
2022-10-26T20:54:05.014Z,4.90
2022-10-26T20:56:34.246Z,4.70
2022-10-26T20:59:04.799Z,4.82
2022-10-26T21:01:34.644Z,5.03
2022-10-26T21:04:03.873Z,6.20
2022-10-26T21:06:40.103Z,5.95
2022-10-26T21:09:09.159Z,5.00
2022-10-26T21:11:37.134Z,4.95
2022-10-26T21:14:06.320Z,4.35
2022-10-26T21:16:34.177Z,4.30
2022-10-26T21:19:04.849Z,3.95
2022-10-26T21:21:34.109Z,4.65
2022-10-26T21:24:02.665Z,4.00
2022-10-26T21:26:30.853Z,4.20
2022-10-26T21:28:59.758Z,4.30
